Time;durP1;ratioP1;P1;durP2;ratioP2;P2;SDS_P1;SDS_P2;PMS_P1;PMS_P2;Temp;Humidity;BMP_temperature;BMP_pressure;BME280_temperature;BME280_humidity;BME280_pressure;Samples;Min_cycle;Max_cycle;Signal;HPM_P1;HPM_P2
2022/09/05 00:01:19;;;;;;;;;;;22.60;41.50;;;;;;4990867;28;19926;-60
2022/09/05 00:03:47;;;;;;;;;;;22.60;41.50;;;;;;5048777;28;19940;-61
2022/09/05 00:06:14;;;;;;;;;;;22.60;41.50;;;;;;5049414;28;19927;-61
2022/09/05 00:08:45;;;;;;;;;;;22.60;41.50;;;;;;5030663;28;20180;-60
2022/09/05 00:11:14;;;;;;;;;;;22.60;41.50;;;;;;5027445;28;19921;-60
2022/09/05 00:13:42;;;;;;;;;;;22.60;41.60;;;;;;5048277;28;19944;-61
2022/09/05 00:16:24;;;;;;;;;;;22.70;41.60;;;;;;5049342;28;19928;-61
2022/09/05 00:18:53;;;;;;;;;;;22.60;41.60;;;;;;5031244;28;19928;-58
2022/09/05 00:21:23;;;;;;;;;;;22.60;41.60;;;;;;5047626;28;19964;-61
2022/09/05 00:23:57;;;;;;;;;;;22.60;41.60;;;;;;5027246;28;20362;-61
2022/09/05 00:26:28;;;;;;;;;;;22.60;41.60;;;;;;5045412;28;19928;-61
2022/09/05 00:28:56;;;;;;;;;;;22.60;41.60;;;;;;5030022;28;19925;-60
2022/09/05 00:31:29;;;;;;;;;;;22.60;41.60;;;;;;5049421;28;19927;-61
2022/09/05 00:34:00;;;;;;;;;;;22.60;41.60;;;;;;5026172;28;19925;-61
2022/09/05 00:36:28;;;;;;;;;;;22.60;41.70;;;;;;5043654;28;19979;-60
2022/09/05 00:38:56;;;;;;;;;;;22.60;41.70;;;;;;5047013;28;19921;-61
2022/09/05 00:41:23;;;;;;;;;;;22.60;41.70;;;;;;5027512;28;19921;-61
2022/09/05 00:43:51;;;;;;;;;;;22.60;41.70;;;;;;5026380;28;19924;-60
2022/09/05 00:46:18;;;;;;;;;;;22.60;41.70;;;;;;5046336;28;19957;-60
2022/09/05 00:48:46;;;;;;;;;;;22.60;41.70;;;;;;5047780;28;19974;-61
2022/09/05 00:51:16;;;;;;;;;;;22.60;41.70;;;;;;5043685;28;19925;-61
2022/09/05 00:53:44;;;;;;;;;;;22.60;41.70;;;;;;5045309;28;20020;-61
2022/09/05 00:56:23;;;;;;;;;;;22.60;41.70;;;;;;5046940;28;19960;-61
2022/09/05 00:58:54;;;;;;;;;;;22.60;41.70;;;;;;5045383;28;19958;-61
2022/09/05 01:01:26;;;;;;;;;;;22.60;41.70;;;;;;5028433;28;20164;-61
2022/09/05 01:03:55;;;;;;;;;;;22.60;41.70;;;;;;5026824;28;19924;-61
2022/09/05 01:06:26;;;;;;;;;;;22.60;41.80;;;;;;5049895;28;19974;-61
2022/09/05 01:09:11;;;;;;;;;;;22.60;41.80;;;;;;5029517;28;19927;-60
2022/09/05 01:11:40;;;;;;;;;;;22.60;41.80;;;;;;5031981;28;19928;-60
2022/09/05 01:14:10;;;;;;;;;;;22.60;41.80;;;;;;5047309;28;19933;-60
2022/09/05 01:16:45;;;;;;;;;;;22.60;41.80;;;;;;5027282;28;20023;-60
2022/09/05 01:19:14;;;;;;;;;;;22.60;41.80;;;;;;5042641;28;19965;-60
2022/09/05 01:21:59;;;;;;;;;;;22.60;41.80;;;;;;5030496;28;19920;-60
2022/09/05 01:24:29;;;;;;;;;;;22.60;41.80;;;;;;5044318;28;19925;-61
2022/09/05 01:27:14;;;;;;;;;;;22.60;41.80;;;;;;5036913;28;20059;-61
2022/09/05 01:29:44;;;;;;;;;;;22.60;41.80;;;;;;5050491;28;19925;-60
2022/09/05 01:32:17;;;;;;;;;;;22.60;41.80;;;;;;5048841;28;19921;-60
2022/09/05 01:34:49;;;;;;;;;;;22.60;41.80;;;;;;5031199;28;19920;-60
2022/09/05 01:37:16;;;;;;;;;;;22.60;41.80;;;;;;5048838;28;19920;-60
2022/09/05 01:39:44;;;;;;;;;;;22.60;41.80;;;;;;5028137;28;20035;-59
2022/09/05 01:42:15;;;;;;;;;;;22.60;41.90;;;;;;5044034;28;20362;-60
2022/09/05 01:44:47;;;;;;;;;;;22.60;41.90;;;;;;5048344;28;19927;-60
2022/09/05 01:47:17;;;;;;;;;;;22.60;41.90;;;;;;5046784;28;19921;-60
2022/09/05 01:49:55;;;;;;;;;;;22.60;41.90;;;;;;5045419;28;19948;-60
2022/09/05 01:52:24;;;;;;;;;;;22.60;41.90;;;;;;5043002;28;20323;-59
2022/09/05 01:54:58;;;;;;;;;;;22.50;41.90;;;;;;5029531;28;19940;-60
2022/09/05 01:57:27;;;;;;;;;;;22.60;41.90;;;;;;5028590;28;19978;-60
2022/09/05 01:59:57;;;;;;;;;;;22.60;42.00;;;;;;5029656;28;19921;-60
2022/09/05 02:02:40;;;;;;;;;;;22.60;42.00;;;;;;5049948;28;20002;-61
2022/09/05 02:05:16;;;;;;;;;;;22.60;42.00;;;;;;5045112;28;19939;-61
2022/09/05 02:07:52;;;;;;;;;;;22.50;41.90;;;;;;5027209;28;19936;-61
2022/09/05 02:10:29;;;;;;;;;;;22.50;41.90;;;;;;5043164;28;19921;-61
2022/09/05 02:12:57;;;;;;;;;;;22.50;41.90;;;;;;5029935;28;20014;-60
2022/09/05 02:15:25;;;;;;;;;;;22.50;41.90;;;;;;5029704;28;20357;-61
2022/09/05 02:17:53;;;;;;;;;;;22.50;41.90;;;;;;5026132;28;20270;-60
2022/09/05 02:20:21;;;;;;;;;;;22.50;41.90;;;;;;5024833;28;19921;-60
2022/09/05 02:22:48;;;;;;;;;;;22.60;42.10;;;;;;5028102;28;20026;-61
2022/09/05 02:25:18;;;;;;;;;;;22.50;42.00;;;;;;5030067;28;19921;-61
2022/09/05 02:27:47;;;;;;;;;;;22.50;41.90;;;;;;5027787;28;19928;-60
2022/09/05 02:30:14;;;;;;;;;;;22.60;42.10;;;;;;5046074;28;19921;-60
2022/09/05 02:32:44;;;;;;;;;;;22.50;42.00;;;;;;5031815;28;19951;-60
2022/09/05 02:35:14;;;;;;;;;;;22.60;42.00;;;;;;5045975;28;19970;-59
2022/09/05 02:37:41;;;;;;;;;;;22.50;42.00;;;;;;5031258;28;19974;-60
2022/09/05 02:40:11;;;;;;;;;;;22.50;42.00;;;;;;5028598;28;19924;-60
2022/09/05 02:42:39;;;;;;;;;;;22.50;42.00;;;;;;5047746;28;19925;-60
2022/09/05 02:45:13;;;;;;;;;;;22.50;42.00;;;;;;5029344;28;19920;-61
2022/09/05 02:47:40;;;;;;;;;;;22.50;42.00;;;;;;5043687;28;19921;-60
2022/09/05 02:50:17;;;;;;;;;;;22.50;42.00;;;;;;5031242;28;20003;-59
2022/09/05 02:52:44;;;;;;;;;;;22.50;42.00;;;;;;5028860;28;19921;-60
2022/09/05 02:55:14;;;;;;;;;;;22.50;42.00;;;;;;5049607;28;19921;-60
2022/09/05 02:57:42;;;;;;;;;;;22.50;42.00;;;;;;5045806;28;19967;-60
2022/09/05 03:00:10;;;;;;;;;;;22.50;42.00;;;;;;5048303;28;19920;-60
2022/09/05 03:02:40;;;;;;;;;;;22.50;42.00;;;;;;5046018;28;19927;-61
2022/09/05 03:05:09;;;;;;;;;;;22.50;42.00;;;;;;5024842;28;19966;-60
2022/09/05 03:07:47;;;;;;;;;;;22.50;42.00;;;;;;5029389;28;19943;-60
2022/09/05 03:10:22;;;;;;;;;;;22.50;42.00;;;;;;5026045;28;19924;-61
2022/09/05 03:13:08;;;;;;;;;;;22.50;42.00;;;;;;5049083;28;19920;-60
2022/09/05 03:15:59;;;;;;;;;;;22.50;42.00;;;;;;5040679;28;19925;-60
2022/09/05 03:18:42;;;;;;;;;;;22.50;42.00;;;;;;5044933;28;19921;-60
2022/09/05 03:21:33;;;;;;;;;;;22.50;42.00;;;;;;5029119;28;19962;-60
2022/09/05 03:24:15;;;;;;;;;;;22.50;42.00;;;;;;5030065;28;19929;-60
2022/09/05 03:26:48;;;;;;;;;;;22.50;42.00;;;;;;5046710;28;19967;-59
2022/09/05 03:29:27;;;;;;;;;;;22.50;42.00;;;;;;5030079;28;20364;-61
2022/09/05 03:32:03;;;;;;;;;;;22.50;42.00;;;;;;5049961;28;19921;-61
2022/09/05 03:34:43;;;;;;;;;;;22.50;42.00;;;;;;5052114;28;19939;-62
2022/09/05 03:37:24;;;;;;;;;;;22.50;42.00;;;;;;5034463;28;19921;-62
2022/09/05 03:40:18;;;;;;;;;;;22.50;42.00;;;;;;5033031;28;20469;-62
2022/09/05 03:42:51;;;;;;;;;;;22.50;42.00;;;;;;5015540;28;19921;-61
2022/09/05 03:45:29;;;;;;;;;;;22.50;42.00;;;;;;5046401;28;19975;-61
2022/09/05 03:48:06;;;;;;;;;;;22.50;42.00;;;;;;5049185;28;19951;-61
2022/09/05 03:50:35;;;;;;;;;;;22.50;42.00;;;;;;5042460;28;20397;-61
2022/09/05 03:53:10;;;;;;;;;;;22.50;42.00;;;;;;5034061;28;19992;-61
2022/09/05 03:55:46;;;;;;;;;;;22.50;42.00;;;;;;5034103;28;20023;-62
2022/09/05 03:58:30;;;;;;;;;;;22.50;42.20;;;;;;5031318;28;19925;-61
2022/09/05 04:01:04;;;;;;;;;;;22.50;42.10;;;;;;5045121;28;20023;-61
2022/09/05 04:03:32;;;;;;;;;;;22.50;42.10;;;;;;5031347;28;19932;-61
2022/09/05 04:06:05;;;;;;;;;;;22.50;42.10;;;;;;5030909;28;19925;-61
2022/09/05 04:08:34;;;;;;;;;;;22.50;42.10;;;;;;5032967;28;19924;-63
2022/09/05 04:11:02;;;;;;;;;;;22.40;41.90;;;;;;5030986;28;19920;-61
2022/09/05 04:13:33;;;;;;;;;;;22.40;42.00;;;;;;5033753;28;20020;-61
2022/09/05 04:16:02;;;;;;;;;;;22.50;42.10;;;;;;5050941;28;19980;-62
2022/09/05 04:18:30;;;;;;;;;;;22.40;42.00;;;;;;5050510;28;19948;-61
2022/09/05 04:21:00;;;;;;;;;;;22.40;42.00;;;;;;5042594;28;19928;-61
2022/09/05 04:23:29;;;;;;;;;;;22.50;42.10;;;;;;5032209;28;19933;-61
2022/09/05 04:26:01;;;;;;;;;;;22.40;42.00;;;;;;5031553;28;19944;-61
2022/09/05 04:28:34;;;;;;;;;;;22.40;42.00;;;;;;5032829;28;19994;-61
2022/09/05 04:31:02;;;;;;;;;;;22.40;42.00;;;;;;5048296;28;19921;-61
2022/09/05 04:33:30;;;;;;;;;;;22.40;42.00;;;;;;5033405;28;20092;-61
2022/09/05 04:35:57;;;;;;;;;;;22.40;42.00;;;;;;5051428;28;19925;-61
2022/09/05 04:38:35;;;;;;;;;;;22.40;42.00;;;;;;5049400;28;19921;-62
2022/09/05 04:41:02;;;;;;;;;;;22.40;42.00;;;;;;5046675;28;19921;-61
2022/09/05 04:43:31;;;;;;;;;;;22.40;42.00;;;;;;5026804;28;19932;-62
2022/09/05 04:46:01;;;;;;;;;;;22.40;42.00;;;;;;5049080;28;19928;-61
2022/09/05 04:48:32;;;;;;;;;;;22.40;42.00;;;;;;5033397;28;19936;-61
2022/09/05 04:51:04;;;;;;;;;;;22.40;42.00;;;;;;5049435;28;19937;-62
2022/09/05 04:53:39;;;;;;;;;;;22.40;42.00;;;;;;5050599;28;20444;-61
2022/09/05 04:56:08;;;;;;;;;;;22.40;42.00;;;;;;5031627;28;19925;-61
2022/09/05 04:58:35;;;;;;;;;;;22.30;42.00;;;;;;5047374;28;19925;-61
2022/09/05 05:01:04;;;;;;;;;;;22.40;42.10;;;;;;5031772;28;19921;-61
2022/09/05 05:03:31;;;;;;;;;;;22.30;42.00;;;;;;5030590;28;20336;-61
2022/09/05 05:05:59;;;;;;;;;;;22.40;42.10;;;;;;5032013;28;19920;-62
2022/09/05 05:08:27;;;;;;;;;;;22.40;42.10;;;;;;5032812;28;19929;-60
2022/09/05 05:10:54;;;;;;;;;;;22.40;42.10;;;;;;5011627;28;20016;-61
2022/09/05 05:13:24;;;;;;;;;;;22.30;42.00;;;;;;5032486;28;19943;-61
2022/09/05 05:15:51;;;;;;;;;;;22.30;42.10;;;;;;5032471;28;19929;-61
2022/09/05 05:18:20;;;;;;;;;;;22.30;42.00;;;;;;5049090;28;19979;-61
2022/09/05 05:20:50;;;;;;;;;;;22.30;42.10;;;;;;5050651;28;19975;-61
2022/09/05 05:23:16;;;;;;;;;;;22.30;42.00;;;;;;5047222;28;19924;-61
2022/09/05 05:25:48;;;;;;;;;;;22.30;42.00;;;;;;5050048;28;19927;-61
2022/09/05 05:28:16;;;;;;;;;;;22.30;42.10;;;;;;5031247;28;19952;-60
2022/09/05 05:30:43;;;;;;;;;;;22.30;42.10;;;;;;5027696;28;19927;-61
2022/09/05 05:33:11;;;;;;;;;;;22.30;42.10;;;;;;5049962;28;19933;-61
2022/09/05 05:35:39;;;;;;;;;;;22.30;42.10;;;;;;5049506;28;19971;-62
2022/09/05 05:38:08;;;;;;;;;;;22.30;42.10;;;;;;5028126;28;20050;-61
2022/09/05 05:40:35;;;;;;;;;;;22.30;42.10;;;;;;5046226;28;19964;-62
2022/09/05 05:43:15;;;;;;;;;;;22.30;42.10;;;;;;5032480;28;19924;-61
2022/09/05 05:45:43;;;;;;;;;;;22.30;42.10;;;;;;5048906;28;19943;-61
2022/09/05 05:48:25;;;;;;;;;;;22.30;42.10;;;;;;5034439;28;19936;-61
2022/09/05 05:50:55;;;;;;;;;;;22.30;42.10;;;;;;5045873;28;19932;-61
2022/09/05 05:53:28;;;;;;;;;;;22.30;42.10;;;;;;5030253;28;19921;-60
2022/09/05 05:56:03;;;;;;;;;;;22.30;42.10;;;;;;5039488;28;19992;-61
2022/09/05 05:58:38;;;;;;;;;;;22.30;42.10;;;;;;5044576;28;20452;-61
2022/09/05 06:01:38;;;;;;;;;;;22.30;42.10;;;;;;5031781;28;19925;-62
2022/09/05 06:04:15;;;;;;;;;;;22.30;42.20;;;;;;5043826;28;19994;-60
2022/09/05 06:06:46;;;;;;;;;;;22.30;42.20;;;;;;5029495;28;19951;-60
2022/09/05 06:09:40;;;;;;;;;;;22.30;42.20;;;;;;5026230;28;19956;-61
2022/09/05 06:12:19;;;;;;;;;;;22.30;42.20;;;;;;5025891;28;19925;-60
2022/09/05 06:14:56;;;;;;;;;;;22.30;42.20;;;;;;5046890;28;21122;-61
2022/09/05 06:17:38;;;;;;;;;;;22.30;42.20;;;;;;5042450;28;19927;-60
2022/09/05 06:20:15;;;;;;;;;;;22.30;42.20;;;;;;5040010;28;20007;-61
2022/09/05 06:22:46;;;;;;;;;;;22.30;42.20;;;;;;5026534;28;19932;-60
2022/09/05 06:25:23;;;;;;;;;;;22.30;42.20;;;;;;5043496;28;19967;-60
2022/09/05 06:27:52;;;;;;;;;;;22.30;42.30;;;;;;5046563;28;19921;-60
2022/09/05 06:30:19;;;;;;;;;;;22.30;42.30;;;;;;5027656;28;19932;-60
2022/09/05 06:32:53;;;;;;;;;;;22.30;42.30;;;;;;5045735;28;19960;-60
2022/09/05 06:35:28;;;;;;;;;;;22.30;42.30;;;;;;5037968;28;19927;-60
2022/09/05 06:38:01;;;;;;;;;;;22.30;42.30;;;;;;5020048;28;20015;-60
2022/09/05 06:40:28;;;;;;;;;;;22.30;42.40;;;;;;5042343;28;19921;-61
2022/09/05 06:43:02;;;;;;;;;;;22.30;42.40;;;;;;5023961;28;19968;-60
2022/09/05 06:45:56;;;;;;;;;;;22.30;42.40;;;;;;5025743;28;19920;-61
2022/09/05 06:48:24;;;;;;;;;;;22.30;42.50;;;;;;5014959;28;20007;-60
2022/09/05 06:51:06;;;;;;;;;;;22.30;42.40;;;;;;5024925;28;19979;-61
2022/09/05 06:53:54;;;;;;;;;;;22.30;42.40;;;;;;5030078;28;19990;-60
2022/09/05 06:56:35;;;;;;;;;;;22.30;42.40;;;;;;4998868;28;19975;-61
2022/09/05 06:59:20;;;;;;;;;;;22.30;42.40;;;;;;5022935;28;19947;-61
2022/09/05 07:01:47;;;;;;;;;;;22.30;42.50;;;;;;5029736;28;19939;-61
2022/09/05 07:04:25;;;;;;;;;;;22.30;42.50;;;;;;5031926;28;19964;-59
2022/09/05 07:06:56;;;;;;;;;;;22.30;42.50;;;;;;5046017;28;19951;-60
2022/09/05 07:09:24;;;;;;;;;;;22.30;42.50;;;;;;5040805;28;19959;-59
2022/09/05 07:11:55;;;;;;;;;;;22.30;42.50;;;;;;5025312;28;19928;-61
2022/09/05 07:14:22;;;;;;;;;;;22.30;42.50;;;;;;5029443;28;19928;-60
2022/09/05 07:16:49;;;;;;;;;;;22.30;42.50;;;;;;5046609;28;19978;-60
2022/09/05 07:19:25;;;;;;;;;;;22.30;42.60;;;;;;5033825;28;19924;-60
2022/09/05 07:22:11;;;;;;;;;;;22.40;42.60;;;;;;5029824;28;19925;-59
2022/09/05 07:24:38;;;;;;;;;;;22.40;42.60;;;;;;5033527;28;19982;-61
2022/09/05 07:27:06;;;;;;;;;;;22.40;42.60;;;;;;5044218;28;19936;-60
2022/09/05 07:29:34;;;;;;;;;;;22.40;42.60;;;;;;5033913;28;19925;-60
2022/09/05 07:32:01;;;;;;;;;;;22.40;42.60;;;;;;5048709;28;19924;-60
2022/09/05 07:34:28;;;;;;;;;;;22.40;42.60;;;;;;5043086;28;19944;-59
2022/09/05 07:36:56;;;;;;;;;;;22.40;42.60;;;;;;5018621;28;19935;-60
2022/09/05 07:39:26;;;;;;;;;;;22.40;42.60;;;;;;5018190;28;19932;-60
2022/09/05 07:41:54;;;;;;;;;;;22.40;42.60;;;;;;5035190;28;19986;-61
2022/09/05 07:44:23;;;;;;;;;;;22.40;42.60;;;;;;5035024;28;19929;-60
2022/09/05 07:46:53;;;;;;;;;;;22.40;42.70;;;;;;5022267;28;19936;-61
2022/09/05 07:49:21;;;;;;;;;;;22.40;42.70;;;;;;5021374;28;19932;-61
2022/09/05 07:51:48;;;;;;;;;;;22.40;42.70;;;;;;5017222;28;19924;-60
2022/09/05 07:54:17;;;;;;;;;;;22.50;42.80;;;;;;5037419;28;19932;-61
2022/09/05 07:56:44;;;;;;;;;;;22.50;42.80;;;;;;5033174;28;19925;-60
2022/09/05 07:59:11;;;;;;;;;;;22.50;42.90;;;;;;5018747;28;19920;-60
2022/09/05 08:01:40;;;;;;;;;;;22.50;42.90;;;;;;5022716;28;19925;-60
2022/09/05 08:04:07;;;;;;;;;;;22.50;42.90;;;;;;5028365;28;19956;-60
2022/09/05 08:06:34;;;;;;;;;;;22.50;43.00;;;;;;5029585;28;19920;-60
2022/09/05 08:09:02;;;;;;;;;;;22.50;43.00;;;;;;5030787;28;19978;-60
2022/09/05 08:11:31;;;;;;;;;;;22.50;43.00;;;;;;5026072;28;20362;-59
2022/09/05 08:13:58;;;;;;;;;;;22.50;43.00;;;;;;5026425;28;19936;-59
2022/09/05 08:16:25;;;;;;;;;;;22.50;43.00;;;;;;5039745;28;20348;-61
2022/09/05 08:18:54;;;;;;;;;;;22.50;43.10;;;;;;5029080;28;19991;-59
2022/09/05 08:21:22;;;;;;;;;;;22.50;43.10;;;;;;5045382;28;19933;-59
2022/09/05 08:23:50;;;;;;;;;;;22.50;43.10;;;;;;5025936;28;19921;-60
2022/09/05 08:26:20;;;;;;;;;;;22.50;43.10;;;;;;5048061;28;20293;-59
2022/09/05 08:28:51;;;;;;;;;;;22.50;43.00;;;;;;5045583;28;19937;-60
2022/09/05 08:31:19;;;;;;;;;;;22.50;43.00;;;;;;5026130;28;19940;-61
2022/09/05 08:33:46;;;;;;;;;;;22.50;43.00;;;;;;5029693;28;20328;-61
2022/09/05 08:36:17;;;;;;;;;;;22.50;43.10;;;;;;5030102;28;20006;-60
2022/09/05 08:38:44;;;;;;;;;;;22.60;43.10;;;;;;5027520;28;19933;-60
2022/09/05 08:41:14;;;;;;;;;;;22.60;43.10;;;;;;5028544;28;19936;-60
2022/09/05 08:43:41;;;;;;;;;;;22.60;43.10;;;;;;5045331;28;20015;-61
2022/09/05 08:46:11;;;;;;;;;;;22.60;43.20;;;;;;5046411;28;20297;-61
2022/09/05 08:48:49;;;;;;;;;;;22.60;43.20;;;;;;5025523;28;19921;-61
2022/09/05 08:51:28;;;;;;;;;;;22.60;43.10;;;;;;5045856;28;19921;-61
2022/09/05 08:54:00;;;;;;;;;;;22.60;43.20;;;;;;5053067;28;19921;-61
2022/09/05 08:56:30;;;;;;;;;;;22.60;43.20;;;;;;5029400;28;19924;-62
2022/09/05 08:59:01;;;;;;;;;;;22.60;43.20;;;;;;5030135;28;19928;-61
2022/09/05 09:01:28;;;;;;;;;;;22.60;43.30;;;;;;5041229;28;19975;-58
2022/09/05 09:04:08;;;;;;;;;;;22.60;43.30;;;;;;5046696;28;20409;-60
2022/09/05 09:06:43;;;;;;;;;;;22.60;43.30;;;;;;5046250;28;19953;-58
2022/09/05 09:09:14;;;;;;;;;;;22.60;43.30;;;;;;5028192;28;20011;-57
2022/09/05 09:11:41;;;;;;;;;;;22.60;43.30;;;;;;5046130;28;19927;-58
2022/09/05 09:14:42;;;;;;;;;;;22.60;43.20;;;;;;5041854;28;19929;-59
2022/09/05 09:17:19;;;;;;;;;;;22.70;43.30;;;;;;4967368;28;19933;-59
2022/09/05 09:19:47;;;;;;;;;;;22.70;43.30;;;;;;4959830;28;19922;-59
2022/09/05 09:22:17;;;;;;;;;;;22.70;43.30;;;;;;5010373;28;19921;-59
2022/09/05 09:24:45;;;;;;;;;;;22.70;43.30;;;;;;5047438;28;19928;-58
2022/09/05 09:27:13;;;;;;;;;;;22.70;43.30;;;;;;5043033;28;19925;-59
2022/09/05 09:29:40;;;;;;;;;;;22.70;43.30;;;;;;5029024;28;19920;-59
2022/09/05 09:32:08;;;;;;;;;;;22.70;43.30;;;;;;5026630;28;19925;-59
2022/09/05 09:34:36;;;;;;;;;;;22.70;43.30;;;;;;5045638;28;19954;-59
2022/09/05 09:37:24;;;;;;;;;;;22.70;43.30;;;;;;5028440;28;19921;-59
2022/09/05 09:40:03;;;;;;;;;;;22.80;42.90;;;;;;5035540;28;19978;-59
2022/09/05 09:42:31;;;;;;;;;;;22.80;43.40;;;;;;5029543;28;19982;-59
2022/09/05 09:45:13;;;;;;;;;;;22.80;43.40;;;;;;5047335;28;19929;-59
2022/09/05 09:47:45;;;;;;;;;;;22.80;43.40;;;;;;5046802;28;19968;-61
2022/09/05 09:50:17;;;;;;;;;;;22.80;43.50;;;;;;5044591;28;19971;-60
2022/09/05 09:53:13;;;;;;;;;;;22.80;43.50;;;;;;5024126;28;20336;-59
2022/09/05 09:55:53;;;;;;;;;;;22.80;43.50;;;;;;5011981;28;19925;-58
2022/09/05 09:58:28;;;;;;;;;;;22.80;43.50;;;;;;5026196;28;20019;-59
2022/09/05 10:00:56;;;;;;;;;;;22.80;43.50;;;;;;5044629;28;19987;-59
2022/09/05 10:03:36;;;;;;;;;;;22.90;43.60;;;;;;5044221;28;19921;-59
2022/09/05 10:06:25;;;;;;;;;;;22.90;43.60;;;;;;5029298;28;20019;-59
2022/09/05 10:08:58;;;;;;;;;;;22.90;43.70;;;;;;5030517;28;20077;-58
2022/09/05 10:11:39;;;;;;;;;;;22.90;43.70;;;;;;5029178;28;19985;-59
2022/09/05 10:14:27;;;;;;;;;;;22.90;43.70;;;;;;5030071;28;19932;-59
2022/09/05 10:17:04;;;;;;;;;;;22.90;43.70;;;;;;5030387;28;19960;-60
2022/09/05 10:19:36;;;;;;;;;;;22.90;43.70;;;;;;5039507;28;20005;-59
2022/09/05 10:22:13;;;;;;;;;;;22.90;43.80;;;;;;5043571;28;19936;-59
2022/09/05 10:24:57;;;;;;;;;;;22.90;43.80;;;;;;5013390;28;20011;-59
2022/09/05 10:27:27;;;;;;;;;;;22.90;43.80;;;;;;5046451;28;20039;-59
2022/09/05 10:30:05;;;;;;;;;;;22.90;43.80;;;;;;5023997;28;19928;-59
2022/09/05 10:32:35;;;;;;;;;;;22.90;43.80;;;;;;5043696;28;19932;-59
2022/09/05 10:35:05;;;;;;;;;;;22.90;43.80;;;;;;5027347;28;19974;-59
2022/09/05 10:37:34;;;;;;;;;;;22.90;43.80;;;;;;5037480;28;19920;-59
2022/09/05 10:40:02;;;;;;;;;;;22.90;43.80;;;;;;5043709;28;19928;-59
2022/09/05 10:42:32;;;;;;;;;;;22.90;43.80;;;;;;5029556;28;19947;-60
2022/09/05 10:45:01;;;;;;;;;;;22.90;43.80;;;;;;5027234;28;19924;-59
2022/09/05 10:47:38;;;;;;;;;;;22.90;43.80;;;;;;5025849;28;19921;-58
2022/09/05 10:50:09;;;;;;;;;;;22.90;43.80;;;;;;5045979;28;19936;-59
2022/09/05 10:52:36;;;;;;;;;;;22.90;43.90;;;;;;5044298;28;19933;-59
2022/09/05 10:55:09;;;;;;;;;;;22.90;43.90;;;;;;5042258;28;19921;-59
2022/09/05 10:57:40;;;;;;;;;;;22.90;43.90;;;;;;5044315;28;19925;-58
2022/09/05 11:00:09;;;;;;;;;;;22.90;43.90;;;;;;5022963;28;19927;-59
2022/09/05 11:02:40;;;;;;;;;;;22.90;43.90;;;;;;5042763;28;19933;-58
2022/09/05 11:05:10;;;;;;;;;;;22.90;44.00;;;;;;5029245;28;19925;-59
2022/09/05 11:07:38;;;;;;;;;;;22.90;44.00;;;;;;5023095;28;19929;-59
2022/09/05 11:10:07;;;;;;;;;;;22.90;44.00;;;;;;5028355;28;19921;-58
2022/09/05 11:12:50;;;;;;;;;;;22.90;44.00;;;;;;5025156;28;20666;-59
2022/09/05 11:15:21;;;;;;;;;;;22.90;44.00;;;;;;5044311;28;19928;-59
2022/09/05 11:17:50;;;;;;;;;;;23.00;44.10;;;;;;5030075;28;19932;-59
2022/09/05 11:20:30;;;;;;;;;;;23.00;44.20;;;;;;5029401;28;19921;-58
2022/09/05 11:22:57;;;;;;;;;;;23.00;44.30;;;;;;5046581;28;19967;-58
2022/09/05 11:25:26;;;;;;;;;;;23.00;44.20;;;;;;5046433;28;19983;-58
2022/09/05 11:27:54;;;;;;;;;;;23.00;44.30;;;;;;5029918;28;19935;-58
2022/09/05 11:30:21;;;;;;;;;;;23.00;44.30;;;;;;5043437;28;19920;-58
2022/09/05 11:33:11;;;;;;;;;;;23.00;44.30;;;;;;5044680;28;19920;-58
2022/09/05 11:35:38;;;;;;;;;;;23.00;44.30;;;;;;5034703;28;20133;-58
2022/09/05 11:38:19;;;;;;;;;;;23.00;44.30;;;;;;5043453;28;20007;-58
2022/09/05 11:41:03;;;;;;;;;;;23.00;44.30;;;;;;5046135;28;19932;-58
2022/09/05 11:43:39;;;;;;;;;;;23.00;44.30;;;;;;5009491;28;20076;-59
2022/09/05 11:46:10;;;;;;;;;;;23.10;44.40;;;;;;5046581;28;19940;-59
2022/09/05 11:48:41;;;;;;;;;;;23.10;44.40;;;;;;5048995;28;19921;-58
2022/09/05 11:51:17;;;;;;;;;;;23.10;44.40;;;;;;5046078;28;19996;-58
2022/09/05 11:53:58;;;;;;;;;;;23.10;44.40;;;;;;5030707;28;19921;-58
2022/09/05 11:56:34;;;;;;;;;;;23.10;44.40;;;;;;5026507;28;19921;-58
2022/09/05 11:59:08;;;;;;;;;;;23.10;44.40;;;;;;5030515;28;19933;-58
2022/09/05 12:01:40;;;;;;;;;;;23.10;44.40;;;;;;5048668;28;19921;-58
2022/09/05 12:04:18;;;;;;;;;;;23.10;44.40;;;;;;5049353;28;19948;-58
2022/09/05 12:06:56;;;;;;;;;;;23.10;44.40;;;;;;5048128;28;19921;-58
2022/09/05 12:09:26;;;;;;;;;;;23.10;44.40;;;;;;5044930;28;19928;-58
2022/09/05 12:11:56;;;;;;;;;;;23.10;44.40;;;;;;5046555;28;20022;-58
2022/09/05 12:14:35;;;;;;;;;;;23.10;44.50;;;;;;5045276;28;20341;-59
2022/09/05 12:17:04;;;;;;;;;;;23.10;44.40;;;;;;5043558;28;20314;-58
2022/09/05 12:19:31;;;;;;;;;;;23.10;44.50;;;;;;5033509;28;19921;-58
2022/09/05 12:22:03;;;;;;;;;;;23.10;44.50;;;;;;5032599;28;20055;-58
2022/09/05 12:24:30;;;;;;;;;;;23.10;44.50;;;;;;5049851;28;19925;-58
2022/09/05 12:26:59;;;;;;;;;;;23.10;44.50;;;;;;5030822;28;20350;-59
2022/09/05 12:29:26;;;;;;;;;;;23.10;44.50;;;;;;5046258;28;19940;-59
2022/09/05 12:31:57;;;;;;;;;;;23.20;44.60;;;;;;5026388;28;19940;-59
2022/09/05 12:34:35;;;;;;;;;;;23.20;44.60;;;;;;5039771;28;19927;-58
2022/09/05 12:37:02;;;;;;;;;;;23.20;44.60;;;;;;5027975;28;20004;-58
2022/09/05 12:39:29;;;;;;;;;;;23.20;44.60;;;;;;5046570;28;19924;-58
2022/09/05 12:42:00;;;;;;;;;;;23.20;44.60;;;;;;5028960;28;19966;-59
2022/09/05 12:44:42;;;;;;;;;;;23.20;44.60;;;;;;5029035;28;19925;-60
2022/09/05 12:47:10;;;;;;;;;;;23.20;44.60;;;;;;5045547;28;19986;-59
2022/09/05 12:49:38;;;;;;;;;;;23.20;44.60;;;;;;5044322;28;19968;-59
2022/09/05 12:52:05;;;;;;;;;;;23.20;44.60;;;;;;5047648;28;19928;-59
2022/09/05 12:54:35;;;;;;;;;;;23.20;44.60;;;;;;5044660;28;20028;-59
2022/09/05 12:57:05;;;;;;;;;;;23.20;44.60;;;;;;5042448;28;19921;-59
2022/09/05 12:59:34;;;;;;;;;;;23.20;44.60;;;;;;5044657;28;19928;-59
2022/09/05 13:02:04;;;;;;;;;;;23.20;44.50;;;;;;5027912;28;19928;-58
2022/09/05 13:04:34;;;;;;;;;;;23.20;44.60;;;;;;5025082;28;19968;-58
2022/09/05 13:07:02;;;;;;;;;;;23.20;44.50;;;;;;5025362;28;19925;-58
2022/09/05 13:09:34;;;;;;;;;;;23.20;44.60;;;;;;5023859;28;20630;-59
2022/09/05 13:12:03;;;;;;;;;;;23.20;44.50;;;;;;5045821;28;19932;-59
2022/09/05 13:14:30;;;;;;;;;;;23.20;44.50;;;;;;5032587;28;19943;-59
2022/09/05 13:16:58;;;;;;;;;;;23.30;44.60;;;;;;5027269;28;19927;-59
2022/09/05 13:19:31;;;;;;;;;;;23.30;44.60;;;;;;5024681;28;19943;-59
2022/09/05 13:22:00;;;;;;;;;;;23.30;44.60;;;;;;5044163;28;19925;-59
2022/09/05 13:24:29;;;;;;;;;;;23.20;44.50;;;;;;5028013;28;19960;-59
2022/09/05 13:26:57;;;;;;;;;;;23.30;44.60;;;;;;5042691;28;20293;-59
2022/09/05 13:29:24;;;;;;;;;;;23.30;44.60;;;;;;5048205;28;19920;-59
2022/09/05 13:31:59;;;;;;;;;;;23.30;44.60;;;;;;5030571;28;19964;-59
2022/09/05 13:34:26;;;;;;;;;;;23.30;44.60;;;;;;5043744;28;20006;-59
2022/09/05 13:36:55;;;;;;;;;;;23.30;44.60;;;;;;5042493;28;19959;-59
2022/09/05 13:39:26;;;;;;;;;;;23.30;44.60;;;;;;5027347;28;19921;-59
2022/09/05 13:41:55;;;;;;;;;;;23.30;44.60;;;;;;5043493;28;19952;-59
2022/09/05 13:44:24;;;;;;;;;;;23.30;44.60;;;;;;5046586;28;19925;-61
2022/09/05 13:46:53;;;;;;;;;;;23.30;44.60;;;;;;5045210;28;20059;-59
2022/09/05 13:49:20;;;;;;;;;;;23.30;44.60;;;;;;5045647;28;19921;-58
2022/09/05 13:51:49;;;;;;;;;;;23.30;44.60;;;;;;5029208;28;19933;-57
2022/09/05 13:54:46;;;;;;;;;;;23.30;44.60;;;;;;5047302;28;19928;-59
2022/09/05 13:57:34;;;;;;;;;;;23.30;44.60;;;;;;4962137;28;19945;-59
2022/09/05 14:00:18;;;;;;;;;;;23.30;44.60;;;;;;5023578;28;20313;-59
2022/09/05 14:02:52;;;;;;;;;;;23.30;44.60;;;;;;4989337;28;19929;-59
2022/09/05 14:05:20;;;;;;;;;;;23.30;44.60;;;;;;5028890;28;19932;-58
2022/09/05 14:07:55;;;;;;;;;;;23.30;44.60;;;;;;5045058;28;20472;-59
2022/09/05 14:10:42;;;;;;;;;;;23.30;44.50;;;;;;5045699;28;20281;-59
2022/09/05 14:13:11;;;;;;;;;;;23.30;44.50;;;;;;5044640;28;20019;-59
2022/09/05 14:15:39;;;;;;;;;;;23.30;44.60;;;;;;5043672;28;19931;-59
2022/09/05 14:18:09;;;;;;;;;;;23.30;45.20;;;;;;5029658;28;20023;-59
2022/09/05 14:23:22;;;;;;;;;;;23.30;44.60;;;;;;5027091;28;19970;-58
2022/09/05 14:25:49;;;;;;;;;;;23.30;44.60;;;;;;5026265;28;19983;-59
2022/09/05 14:28:20;;;;;;;;;;;23.30;44.60;;;;;;5046894;28;19921;-59
2022/09/05 14:30:48;;;;;;;;;;;23.30;44.60;;;;;;5043228;28;20287;-59
2022/09/05 14:33:29;;;;;;;;;;;23.40;44.70;;;;;;5031206;28;19926;-58
2022/09/05 14:35:59;;;;;;;;;;;23.40;44.70;;;;;;5043887;28;19920;-58
2022/09/05 14:38:31;;;;;;;;;;;23.40;44.70;;;;;;5049230;28;19951;-58
2022/09/05 14:41:17;;;;;;;;;;;23.30;44.60;;;;;;5026241;28;19988;-59
2022/09/05 14:43:48;;;;;;;;;;;23.40;44.70;;;;;;5039014;28;19928;-59
2022/09/05 14:46:26;;;;;;;;;;;23.40;44.70;;;;;;5027072;28;19928;-59
2022/09/05 14:48:58;;;;;;;;;;;23.40;44.60;;;;;;5027718;28;20032;-58